Time;durP1;ratioP1;P1;durP2;ratioP2;P2;SDS_P1;SDS_P2;PMS_P1;PMS_P2;Temp;Humidity;BMP_temperature;BMP_pressure;BME280_temperature;BME280_humidity;BME280_pressure;Samples;Min_cycle;Max_cycle;Signal;HPM_P1;HPM_P2
2023/12/28 00:00:43;;;;;;;48.90;22.60;;;;;;;0.39;86.26;100283.55;134268;1304;22439;-76
2023/12/28 00:03:44;;;;;;;47.00;22.60;;;;;;;0.38;86.31;100276.34;134296;1301;22440;-75
2023/12/28 00:06:45;;;;;;;;;;;;;;;0.36;86.33;100270.54;134316;1298;22442;-76
2023/12/28 00:09:54;;;;;;;49.10;21.90;;;;;;;0.35;86.29;100258.83;134275;1298;23062;-77
2023/12/28 00:12:57;;;;;;;;;;;;;;;0.34;86.49;100257.62;134304;1301;22475;-76
2023/12/28 00:16:00;;;;;;;48.90;21.00;;;;;;;0.34;86.69;100257.30;134270;1298;22360;-75
2023/12/28 00:19:02;;;;;;;50.20;22.50;;;;;;;0.35;86.82;100249.23;134295;1297;22365;-76
2023/12/28 00:22:03;;;;;;;59.00;23.10;;;;;;;0.37;86.94;100252.58;134284;1285;22367;-75
2023/12/28 00:25:15;;;;;;;51.00;24.00;;;;;;;0.37;87.16;100246.45;134279;1304;22358;-75
2023/12/28 00:28:23;;;;;;;57.80;22.00;;;;;;;0.38;87.41;100241.57;134294;1298;22513;-76
2023/12/28 00:31:23;;;;;;;45.40;23.70;;;;;;;0.37;87.42;100231.52;134277;1298;22255;-75
2023/12/28 00:34:24;;;;;;;52.40;30.10;;;;;;;0.36;87.49;100221.67;134271;1298;22534;-76
2023/12/28 00:37:45;;;;;;;52.90;29.50;;;;;;;0.36;87.50;100220.10;134281;1298;22538;-76
2023/12/28 00:40:46;;;;;;;52.20;26.00;;;;;;;0.36;87.52;100223.58;134273;1298;22908;-75
2023/12/28 00:43:52;;;;;;;45.40;22.50;;;;;;;0.37;87.68;100231.02;134268;1298;22344;-75
2023/12/28 00:46:53;;;;;;;48.50;22.70;;;;;;;0.38;87.80;100227.11;134283;1298;22505;-75
2023/12/28 00:49:54;;;;;;;44.30;20.50;;;;;;;0.38;87.81;100226.43;134289;1301;22419;-76
2023/12/28 00:52:58;;;;;;;49.50;22.50;;;;;;;0.37;87.97;100223.13;134271;1298;23280;-76
2023/12/28 00:55:58;;;;;;;39.30;20.40;;;;;;;0.37;87.88;100220.91;134289;1304;22397;-76
2023/12/28 00:59:01;;;;;;;44.60;20.80;;;;;;;0.35;87.92;100215.42;134295;1304;23047;-75
2023/12/28 01:02:02;;;;;;;51.80;20.20;;;;;;;0.35;87.84;100214.45;134235;1301;22247;-75
2023/12/28 01:05:04;;;;;;;43.40;20.60;;;;;;;0.33;87.97;100210.39;134274;1298;22366;-75
2023/12/28 01:08:16;;;;;;;48.80;20.60;;;;;;;0.33;88.12;100208.63;134265;1298;22689;-75
2023/12/28 01:11:20;;;;;;;52.00;21.60;;;;;;;0.34;88.24;100211.88;134252;1298;22573;-76
2023/12/28 01:14:21;;;;;;;46.60;21.00;;;;;;;0.37;88.52;100212.54;134256;1304;23197;-76
2023/12/28 01:17:21;;;;;;;;;;;;;;;0.39;88.48;100204.92;134303;1298;22438;-76
2023/12/28 01:20:22;;;;;;;46.00;19.90;;;;;;;0.39;88.45;100204.05;134293;1301;23263;-75
2023/12/28 01:23:40;;;;;;;46.70;19.90;;;;;;;0.38;88.45;100200.44;134166;1304;24914;-75
2023/12/28 01:26:54;;;;;;;;;;;;;;;;;;;;;
2023/12/28 01:30:06;;;;;;;43.10;20.30;;;;;;;0.37;88.58;100199.31;134280;1304;22277;-75
2023/12/28 01:33:07;;;;;;;45.80;19.80;;;;;;;0.37;88.77;100194.27;134274;1298;22427;-75
2023/12/28 01:36:20;;;;;;;40.30;20.40;;;;;;;0.37;88.82;100200.16;134227;1305;23267;-76
2023/12/28 01:39:27;;;;;;;43.20;20.20;;;;;;;0.34;88.60;100203.84;134279;1298;22445;-75
2023/12/28 01:42:30;;;;;;;44.60;22.10;;;;;;;0.30;88.88;100197.18;134274;1304;23180;-75
2023/12/28 01:45:30;;;;;;;44.90;21.00;;;;;;;0.28;88.69;100191.40;134280;1297;22335;-76
2023/12/28 01:48:32;;;;;;;41.50;20.40;;;;;;;0.26;88.72;100191.00;134144;1300;22979;-75
2023/12/28 01:51:33;;;;;;;37.00;19.50;;;;;;;0.26;89.02;100187.36;134288;1301;23289;-75
2023/12/28 01:54:39;;;;;;;44.20;21.40;;;;;;;0.24;88.91;100180.54;134275;1304;22489;-75
2023/12/28 01:57:40;;;;;;;43.90;20.30;;;;;;;0.17;89.11;100173.96;134244;1298;22969;-75
2023/12/28 02:00:42;;;;;;;60.40;23.90;;;;;;;0.14;89.54;100175.20;134131;1305;22479;-76
2023/12/28 02:03:43;;;;;;;45.60;20.60;;;;;;;0.09;89.22;100174.50;134096;1301;22256;-76
2023/12/28 02:06:47;;;;;;;50.20;22.00;;;;;;;0.12;89.67;100160.27;134130;1301;22210;-75
2023/12/28 02:10:08;;;;;;;58.50;23.90;;;;;;;0.12;89.48;100148.25;134108;1301;22485;-76
2023/12/28 02:13:09;;;;;;;61.60;24.60;;;;;;;0.12;89.64;100142.33;134297;1298;22486;-75
2023/12/28 02:16:21;;;;;;;46.70;21.40;;;;;;;0.12;89.77;100136.08;134251;1304;22369;-76
2023/12/28 02:19:50;;;;;;;47.50;21.00;;;;;;;0.14;89.86;100129.46;134240;1305;23217;-76
2023/12/28 02:22:53;;;;;;;42.50;19.90;;;;;;;0.19;90.31;100129.16;134278;1298;23336;-76
2023/12/28 02:25:54;;;;;;;42.10;19.20;;;;;;;0.25;90.31;100134.48;134118;1305;22937;-75
2023/12/28 02:28:54;;;;;;;;;;;;;;;0.29;90.11;100132.66;134290;1301;22485;-75
2023/12/28 02:32:12;;;;;;;34.40;17.70;;;;;;;0.31;90.38;100119.14;134246;1304;22333;-75
2023/12/28 02:35:46;;;;;;;36.80;17.60;;;;;;;0.36;90.31;100113.96;134267;1304;22444;-75
2023/12/28 02:38:49;;;;;;;38.40;18.50;;;;;;;0.40;90.39;100107.39;134249;1298;23162;-76
2023/12/28 02:45:36;;;;;;;35.30;17.60;;;;;;;0.48;90.37;100105.32;134130;1301;22384;-75
2023/12/28 02:48:39;;;;;;;39.20;18.40;;;;;;;0.51;90.53;100101.79;134301;1286;22459;-75
2023/12/28 02:51:47;;;;;;;35.80;17.00;;;;;;;0.55;90.74;100099.08;134235;1298;22274;-75
2023/12/28 02:54:56;;;;;;;34.10;15.70;;;;;;;0.59;90.34;100094.14;134243;1305;22346;-76
2023/12/28 02:58:00;;;;;;;35.90;17.20;;;;;;;0.60;90.36;100082.77;134156;1301;22438;-75
2023/12/28 03:01:06;;;;;;;35.90;17.40;;;;;;;0.61;90.44;100085.65;134252;1297;22516;-75
2023/12/28 03:04:19;;;;;;;35.80;17.70;;;;;;;0.62;90.53;100085.19;134248;1304;22361;-75
2023/12/28 03:07:26;;;;;;;40.30;19.20;;;;;;;0.62;90.38;100084.33;134096;1301;23043;-75
2023/12/28 03:10:27;;;;;;;40.50;18.60;;;;;;;0.59;90.35;100066.80;134250;1304;23300;-76
2023/12/28 03:13:28;;;;;;;40.00;18.80;;;;;;;0.56;90.57;100065.95;134141;1304;23149;-75
2023/12/28 03:16:28;;;;;;;34.20;18.00;;;;;;;0.55;90.32;100060.85;134041;1304;22241;-76
2023/12/28 03:19:32;;;;;;;33.30;16.90;;;;;;;0.53;90.52;100052.59;134273;1298;22352;-75
2023/12/28 03:22:33;;;;;;;35.00;16.60;;;;;;;0.56;90.79;100054.31;134088;1301;22425;-76
2023/12/28 03:25:36;;;;;;;34.00;17.10;;;;;;;0.59;90.80;100056.90;134258;1304;22234;-76
2023/12/28 03:28:52;;;;;;;;;;;;;;;;;;;;;
2023/12/28 03:32:31;;;;;;;33.70;15.70;;;;;;;0.62;90.74;100050.25;134271;1299;22393;-76
2023/12/28 03:35:37;;;;;;;30.50;14.70;;;;;;;0.63;90.71;100043.90;134244;1304;22304;-76
2023/12/28 03:39:13;;;;;;;30.80;15.60;;;;;;;0.66;90.81;100045.25;134246;1305;22230;-76
2023/12/28 03:42:34;;;;;;;27.70;14.30;;;;;;;0.72;90.99;100044.13;134244;1304;23791;-76
2023/12/28 03:45:58;;;;;;;23.90;13.80;;;;;;;0.78;90.95;100040.95;134129;1298;23866;-76
2023/12/28 03:49:07;;;;;;;27.30;13.70;;;;;;;0.82;90.81;100028.61;134095;1298;22457;-75
2023/12/28 03:52:16;;;;;;;28.00;14.00;;;;;;;0.82;90.62;100024.25;134272;1299;22265;-76
2023/12/28 03:55:37;;;;;;;24.20;12.70;;;;;;;0.79;90.49;100016.48;134096;1301;22388;-75
2023/12/28 03:58:47;;;;;;;23.20;11.60;;;;;;;0.79;90.70;100004.48;134160;1298;23123;-76
2023/12/28 04:01:51;;;;;;;22.00;10.50;;;;;;;0.83;90.73;99998.94;134226;1298;22419;-76
2023/12/28 04:04:57;;;;;;;22.70;11.50;;;;;;;0.87;90.76;100004.73;134261;1299;22454;-75
2023/12/28 04:08:15;;;;;;;17.70;9.70;;;;;;;0.98;91.04;100005.62;134247;1298;22370;-75
2023/12/28 04:11:36;;;;;;;15.80;8.60;;;;;;;1.10;91.18;100001.09;134243;1299;23249;-76
2023/12/28 04:14:36;;;;;;;17.40;8.40;;;;;;;1.25;91.30;99998.80;134265;1295;22151;-75
2023/12/28 04:17:37;;;;;;;14.30;8.10;;;;;;;1.44;91.24;99999.02;134259;1304;23100;-75
2023/12/28 04:20:38;;;;;;;13.40;7.30;;;;;;;1.60;90.83;99999.77;134254;1304;22407;-75
2023/12/28 04:23:39;;;;;;;;;;;;;;;1.72;90.56;99993.13;134240;1304;22476;-75
2023/12/28 04:26:40;;;;;;;16.10;7.70;;;;;;;1.88;90.12;99994.23;134256;1298;23194;-73
2023/12/28 04:29:41;;;;;;;15.70;7.20;;;;;;;2.00;90.07;99989.10;134255;1301;22183;-76
2023/12/28 04:32:42;;;;;;;;;;;;;;;2.08;89.83;99981.17;134276;1304;22485;-75
2023/12/28 04:35:46;;;;;;;13.40;6.50;;;;;;;2.14;89.48;99989.46;134216;1296;22130;-75
2023/12/28 04:38:47;;;;;;;12.10;6.80;;;;;;;2.21;89.37;99995.94;134252;1301;22545;-75
2023/12/28 04:41:48;;;;;;;12.50;7.00;;;;;;;2.27;89.14;99993.91;134114;1300;23436;-73
2023/12/28 04:44:49;;;;;;;12.60;7.60;;;;;;;2.32;88.85;99995.27;134079;1304;22445;-75
2023/12/28 04:47:49;;;;;;;18.50;7.70;;;;;;;2.37;88.58;99990.70;134246;1301;22931;-77
2023/12/28 04:50:50;;;;;;;14.60;6.80;;;;;;;2.42;88.43;99989.71;134261;1304;22201;-75
2023/12/28 04:53:51;;;;;;;12.80;7.00;;;;;;;2.46;88.05;99987.39;134232;1301;22270;-73
2023/12/28 04:56:52;;;;;;;13.20;7.30;;;;;;;2.46;87.75;99978.08;134165;1305;23119;-73
2023/12/28 04:59:54;;;;;;;12.90;7.20;;;;;;;2.46;87.37;99977.23;134106;1299;22404;-73
2023/12/28 05:02:55;;;;;;;17.30;9.00;;;;;;;2.49;87.62;99985.72;134270;1298;23057;-73
2023/12/28 05:05:57;;;;;;;16.20;7.90;;;;;;;2.52;87.50;99992.48;134304;1304;22428;-73
2023/12/28 05:08:58;;;;;;;14.20;8.00;;;;;;;2.52;87.31;100000.56;134274;1292;22407;-75
2023/12/28 05:11:59;;;;;;;13.40;6.60;;;;;;;2.49;87.23;100008.30;134190;1301;23320;-73
2023/12/28 05:15:00;;;;;;;;;;;;;;;2.46;87.08;100011.31;134272;1299;22477;-76
2023/12/28 05:18:10;;;;;;;9.60;6.30;;;;;;;2.38;86.87;100007.34;134023;1304;139680;-73
2023/12/28 05:21:12;;;;;;;16.20;7.30;;;;;;;2.32;86.65;100000.33;134257;1289;22477;-75
2023/12/28 05:24:13;;;;;;;11.50;6.90;;;;;;;2.28;86.80;99998.39;134291;1304;22419;-75
2023/12/28 05:27:30;;;;;;;12.70;7.20;;;;;;;2.25;86.60;100003.79;134276;1301;22327;-76
2023/12/28 05:30:31;;;;;;;10.10;6.60;;;;;;;2.22;86.49;100010.86;134292;1304;22998;-75
2023/12/28 05:33:32;;;;;;;12.70;7.20;;;;;;;2.19;86.46;100021.20;134285;1301;22229;-75
2023/12/28 05:36:32;;;;;;;12.30;6.60;;;;;;;2.15;86.26;100022.02;134372;1299;22276;-75
2023/12/28 05:39:33;;;;;;;14.20;7.70;;;;;;;2.11;86.07;100014.82;134262;1302;22472;-76
2023/12/28 05:42:34;;;;;;;13.80;6.80;;;;;;;2.07;86.12;100024.74;134291;1298;22388;-75
2023/12/28 05:45:38;;;;;;;19.70;9.80;;;;;;;2.07;86.07;100029.80;134272;1304;22403;-75
2023/12/28 05:48:39;;;;;;;54.60;30.10;;;;;;;2.04;85.96;100023.89;134295;1304;22278;-77
2023/12/28 05:51:58;;;;;;;28.20;14.80;;;;;;;2.00;85.88;100027.31;134301;1298;22490;-75
2023/12/28 05:54:59;;;;;;;43.00;28.80;;;;;;;1.94;85.91;100023.79;134289;1304;22501;-75
2023/12/28 05:58:20;;;;;;;14.40;8.90;;;;;;;1.90;85.95;100026.18;134320;1304;22184;-75
2023/12/28 06:01:23;;;;;;;11.80;6.90;;;;;;;1.91;86.23;100034.13;134325;1304;22388;-75
2023/12/28 06:04:26;;;;;;;13.10;7.50;;;;;;;1.92;86.22;100037.16;134325;1302;22490;-75
2023/12/28 06:07:30;;;;;;;17.10;9.10;;;;;;;1.91;86.00;100040.23;134267;1299;22386;-75
2023/12/28 06:10:35;;;;;;;20.30;12.10;;;;;;;1.86;85.75;100038.48;134282;1304;22397;-76
2023/12/28 06:13:41;;;;;;;20.80;10.40;;;;;;;1.77;85.65;100037.20;134268;1302;22487;-75
2023/12/28 06:16:48;;;;;;;23.00;12.80;;;;;;;1.71;85.71;100035.59;134250;1302;22237;-75
2023/12/28 06:19:52;;;;;;;23.00;11.60;;;;;;;1.73;86.06;100030.36;134275;1304;22618;-75
2023/12/28 06:22:53;;;;;;;24.50;11.80;;;;;;;1.83;86.20;100033.17;134283;1304;22350;-75
2023/12/28 06:26:04;;;;;;;20.60;9.60;;;;;;;1.85;86.06;100032.63;134263;1304;22472;-75
2023/12/28 06:29:09;;;;;;;16.80;9.60;;;;;;;1.86;85.90;100030.33;134280;1297;23522;-75
2023/12/28 06:32:12;;;;;;;17.70;11.00;;;;;;;1.82;85.68;100028.16;134262;1304;22359;-75
2023/12/28 06:35:13;;;;;;;22.60;10.70;;;;;;;1.74;85.52;100030.13;134274;1301;22318;-76
2023/12/28 06:38:14;;;;;;;;;;;;;;;1.68;85.51;100045.37;134289;1298;22474;-75
2023/12/28 06:41:17;;;;;;;17.80;9.70;;;;;;;1.58;85.37;100046.14;134311;1304;22998;-75
2023/12/28 06:44:18;;;;;;;17.10;8.70;;;;;;;1.46;85.38;100042.64;134281;1304;22410;-75
2023/12/28 06:47:19;;;;;;;13.30;7.60;;;;;;;1.41;85.54;100047.20;134304;1304;22480;-75
2023/12/28 06:50:20;;;;;;;;;;;;;;;1.38;85.69;100053.28;134297;1298;22473;-75
2023/12/28 06:53:20;;;;;;;13.80;6.10;;;;;;;1.42;86.04;100050.55;134269;1304;23465;-75
2023/12/28 06:56:21;;;;;;;;;;;;;;;1.55;86.32;100057.48;134289;1304;22483;-75
2023/12/28 06:59:31;;;;;;;10.80;6.40;;;;;;;1.66;85.91;100039.05;134275;1304;22406;-75
2023/12/28 07:02:35;;;;;;;16.10;7.30;;;;;;;1.87;85.97;100027.57;134259;1304;22431;-75
2023/12/28 07:06:17;;;;;;;8.70;5.30;;;;;;;2.07;86.02;100035.32;134268;1298;23015;-75
2023/12/28 07:09:17;;;;;;;10.40;5.60;;;;;;;2.28;85.87;100032.08;134267;1302;22460;-75
2023/12/28 07:12:23;;;;;;;11.60;5.40;;;;;;;2.44;85.77;100023.96;134317;1298;23060;-75
2023/12/28 07:15:25;;;;;;;7.70;4.40;;;;;;;2.63;85.73;100028.52;134275;1298;22648;-74
2023/12/28 07:18:25;;;;;;;7.90;5.00;;;;;;;2.79;85.52;100031.65;134336;1304;22330;-75
2023/12/28 07:21:26;;;;;;;9.30;5.10;;;;;;;2.98;85.49;100036.26;134271;1298;22466;-75
2023/12/28 07:24:29;;;;;;;;;;;;;;;3.16;85.13;100043.92;134330;1298;22479;-75
2023/12/28 07:27:41;;;;;;;9.00;4.80;;;;;;;3.39;84.97;100050.85;134322;1299;22368;-75
2023/12/28 07:30:53;;;;;;;11.30;5.30;;;;;;;3.64;84.76;100048.69;134258;1298;22222;-76
2023/12/28 07:34:05;;;;;;;;;;;;;;;;;;;;;
2023/12/28 07:37:49;;;;;;;;;;;;;;;;;;;;;
2023/12/28 07:40:52;;;;;;;8.10;4.40;;;;;;;4.38;83.65;100059.58;134281;1298;23156;-74
2023/12/28 07:43:53;;;;;;;6.50;3.90;;;;;;;4.64;83.09;100054.63;134281;1299;22324;-75
2023/12/28 07:47:16;;;;;;;7.80;4.40;;;;;;;4.93;82.35;100057.38;134357;1297;22456;-75
2023/12/28 07:50:17;;;;;;;7.70;4.10;;;;;;;5.16;81.98;100060.27;134301;1298;22201;-75
2023/12/28 07:53:18;;;;;;;6.60;4.40;;;;;;;5.27;81.40;100064.92;134284;1304;22418;-76
2023/12/28 07:56:29;;;;;;;;;;;;;;;5.37;81.38;100071.96;134263;1298;23335;-78
2023/12/28 07:59:30;;;;;;;7.30;4.30;;;;;;;5.45;81.14;100070.98;134301;1298;22167;-75
2023/12/28 08:02:31;;;;;;;;;;;;;;;5.51;80.79;100069.67;134239;1299;22512;-76
2023/12/28 08:05:32;;;;;;;7.30;4.50;;;;;;;5.59;80.46;100070.18;134288;1298;23457;-79
2023/12/28 08:08:33;;;;;;;;;;;;;;;5.65;80.41;100064.27;134225;1298;22594;-77
2023/12/28 08:11:33;;;;;;;;;;;;;;;5.70;79.94;100073.11;134230;1298;22498;-76
2023/12/28 08:14:34;;;;;;;7.10;3.60;;;;;;;5.74;79.67;100075.20;134159;1295;22932;-76
2023/12/28 08:17:35;;;;;;;5.70;3.90;;;;;;;5.78;79.55;100066.63;134233;1297;22401;-76
2023/12/28 08:21:04;;;;;;;;;;;;;;;;;;;;;
2023/12/28 08:24:08;;;;;;;4.60;3.00;;;;;;;5.86;78.67;100069.91;134251;1301;22896;-76
2023/12/28 08:27:09;;;;;;;;;;;;;;;5.89;78.39;100083.17;134129;1297;22535;-76
2023/12/28 08:30:10;;;;;;;6.80;3.80;;;;;;;5.89;78.45;100094.02;134256;1298;22501;-76
2023/12/28 08:33:11;;;;;;;5.30;3.60;;;;;;;5.88;78.38;100097.64;134272;1298;22299;-76
2023/12/28 08:36:11;;;;;;;;;;;;;;;5.92;78.32;100093.09;134263;1298;22564;-76
2023/12/28 08:39:12;;;;;;;5.50;3.40;;;;;;;5.96;77.89;100088.41;134267;1298;22269;-75
2023/12/28 08:42:14;;;;;;;7.30;4.40;;;;;;;6.00;77.57;100082.86;134247;1299;23117;-76
2023/12/28 08:45:15;;;;;;;6.90;3.70;;;;;;;6.07;77.61;100090.21;134240;1298;22448;-74
2023/12/28 08:48:15;;;;;;;;;;;;;;;6.14;77.74;100093.38;134226;1298;22492;-72
2023/12/28 08:51:16;;;;;;;6.80;3.80;;;;;;;6.23;77.72;100099.59;134255;1298;22392;-73
2023/12/28 08:54:17;;;;;;;11.70;6.20;;;;;;;6.34;77.36;100094.45;134230;1298;22400;-75
2023/12/28 08:57:18;;;;;;;8.70;4.10;;;;;;;6.45;77.44;100100.82;134257;1298;22438;-76
2023/12/28 09:00:19;;;;;;;;;;;;;;;6.56;77.21;100101.17;134265;1301;22456;-75
2023/12/28 09:03:19;;;;;;;;;;;;;;;6.65;76.90;100107.70;134277;1301;22473;-76
2023/12/28 09:06:23;;;;;;;7.80;4.80;;;;;;;6.71;76.73;100107.53;134241;1298;22433;-76
2023/12/28 09:09:24;;;;;;;8.20;4.90;;;;;;;6.76;76.47;100108.99;134213;1292;23520;-75
2023/12/28 09:12:24;;;;;;;8.50;4.80;;;;;;;6.81;76.24;100108.55;134276;1302;22363;-77
2023/12/28 09:15:25;;;;;;;;;;;;;;;6.84;76.04;100104.75;134289;1298;23318;-77
2023/12/28 09:18:26;;;;;;;6.30;4.00;;;;;;;6.86;75.53;100096.45;134296;1298;22376;-78
2023/12/28 09:21:27;;;;;;;7.20;4.30;;;;;;;6.90;75.14;100110.90;134333;1295;22497;-79
2023/12/28 09:24:48;;;;;;;8.10;4.30;;;;;;;6.93;74.98;100127.99;134273;1299;22361;-77
2023/12/28 09:27:48;;;;;;;5.90;3.50;;;;;;;6.94;75.21;100128.38;134254;1298;22377;-77
2023/12/28 09:30:56;;;;;;;7.70;4.40;;;;;;;6.94;75.31;100117.19;134271;1301;22467;-77
2023/12/28 09:33:57;;;;;;;7.10;4.90;;;;;;;6.94;75.51;100125.79;134295;1304;22415;-77
2023/12/28 09:37:10;;;;;;;8.00;4.90;;;;;;;6.94;75.70;100122.07;134207;1297;22340;-77
2023/12/28 09:40:32;;;;;;;;;;;;;;;6.93;75.86;100123.21;134071;1301;22504;-77
2023/12/28 09:43:45;;;;;;;27.30;6.30;;;;;;;6.94;76.06;100115.64;134250;1304;22301;-77
2023/12/28 09:46:46;;;;;;;6.20;4.30;;;;;;;6.95;75.89;100108.13;134279;1298;23257;-77
2023/12/28 09:49:47;;;;;;;9.30;5.00;;;;;;;6.96;75.56;100107.66;134300;1298;22463;-76
2023/12/28 09:52:50;;;;;;;11.50;6.20;;;;;;;6.98;75.16;100109.78;134232;1304;22415;-76
2023/12/28 09:55:53;;;;;;;8.30;5.80;;;;;;;7.01;74.82;100108.11;134205;1301;23169;-77
2023/12/28 09:58:57;;;;;;;9.30;5.20;;;;;;;7.03;74.85;100097.30;134316;1298;22429;-76
2023/12/28 10:02:01;;;;;;;9.00;4.80;;;;;;;7.05;74.76;100093.85;134268;1298;22410;-76
2023/12/28 10:05:02;;;;;;;13.20;6.90;;;;;;;7.07;74.82;100101.53;133957;1299;22370;-76
2023/12/28 10:08:02;;;;;;;;;;;;;;;7.08;75.11;100104.59;134298;1298;23196;-76
2023/12/28 10:11:04;;;;;;;14.60;7.70;;;;;;;7.11;74.91;100102.33;133878;1298;22427;-77
2023/12/28 10:14:09;;;;;;;10.50;5.90;;;;;;;7.14;74.90;100093.08;133870;1298;23351;-77
2023/12/28 10:17:18;;;;;;;8.80;4.40;;;;;;;7.18;74.89;100091.80;133942;1298;22447;-76
2023/12/28 10:20:19;;;;;;;8.00;4.90;;;;;;;7.23;74.79;100079.65;133814;1285;22590;-76
2023/12/28 10:23:23;;;;;;;12.00;6.70;;;;;;;7.26;74.54;100073.32;133969;1298;22265;-75
2023/12/28 10:26:24;;;;;;;9.50;5.10;;;;;;;7.32;74.55;100079.48;133778;1298;22389;-75
2023/12/28 10:29:26;;;;;;;10.20;5.90;;;;;;;7.37;74.50;100085.33;133826;1298;22582;-76
2023/12/28 10:32:53;;;;;;;10.30;5.60;;;;;;;7.42;74.56;100090.63;133925;1298;22389;-75
2023/12/28 10:35:59;;;;;;;15.70;7.80;;;;;;;7.48;74.32;100092.05;134070;1298;22552;-75
2023/12/28 10:39:05;;;;;;;19.30;7.70;;;;;;;7.53;73.76;100092.77;133966;1298;22418;-75
2023/12/28 10:42:14;;;;;;;11.10;5.60;;;;;;;7.56;73.79;100096.31;133927;1298;22401;-76
2023/12/28 10:45:20;;;;;;;17.40;6.90;;;;;;;7.59;74.08;100109.63;133809;1298;22496;-75
2023/12/28 10:48:31;;;;;;;20.60;8.50;;;;;;;7.60;73.67;100109.78;133948;1298;22379;-75
2023/12/28 10:51:36;;;;;;;14.70;6.70;;;;;;;7.62;73.45;100109.25;134058;1298;22400;-75
2023/12/28 10:55:18;;;;;;;16.40;7.40;;;;;;;7.63;73.35;100107.45;134071;1298;23166;-75
2023/12/28 10:58:54;;;;;;;16.30;7.40;;;;;;;7.65;73.10;100105.34;134030;1298;22413;-75
2023/12/28 11:01:59;;;;;;;17.30;7.40;;;;;;;7.67;73.35;100118.71;133898;1298;22294;-74
2023/12/28 11:05:05;;;;;;;11.30;6.10;;;;;;;7.70;73.33;100114.06;134008;1304;22366;-74
2023/12/28 11:12:01;;;;;;;;;;;;;;;;;;;;;
2023/12/28 11:15:08;;;;;;;6.20;4.40;;;;;;;7.81;72.91;100094.60;134134;1298;23220;-74
2023/12/28 11:18:15;;;;;;;7.50;4.80;;;;;;;7.88;72.90;100094.50;134257;1299;22255;-74
2023/12/28 11:21:17;;;;;;;8.40;4.10;;;;;;;7.93;72.64;100094.91;134216;1298;23140;-74
2023/12/28 11:24:38;;;;;;;10.00;5.20;;;;;;;7.97;72.72;100083.89;134275;1298;22498;-74
2023/12/28 11:27:42;;;;;;;15.80;6.30;;;;;;;8.03;72.98;100085.60;134207;1298;22176;-74
2023/12/28 11:30:43;;;;;;;13.50;6.00;;;;;;;8.06;72.81;100084.73;134242;1289;22440;-74
2023/12/28 11:33:53;;;;;;;10.30;4.80;;;;;;;8.11;72.62;100085.01;134275;1294;22279;-74
2023/12/28 11:37:20;;;;;;;7.30;4.10;;;;;;;8.14;72.68;100087.48;134192;1298;22467;-75
2023/12/28 11:40:21;;;;;;;6.10;4.10;;;;;;;8.18;72.70;100080.94;134122;1298;22448;-75
2023/12/28 11:43:22;;;;;;;;;;;;;;;8.22;72.73;100076.70;134244;1298;22495;-75
2023/12/28 11:46:26;;;;;;;8.20;4.40;;;;;;;8.24;72.73;100075.04;134226;1304;22263;-75
2023/12/28 11:50:02;;;;;;;;;;;;;;;;;;;;;
2023/12/28 11:53:15;;;;;;;8.00;4.40;;;;;;;8.29;72.62;100071.89;134220;1297;22379;-74
2023/12/28 11:56:17;;;;;;;6.90;4.20;;;;;;;8.32;72.60;100075.17;134262;1304;22379;-73
2023/12/28 11:59:20;;;;;;;11.10;5.80;;;;;;;8.34;72.59;100065.67;134229;1299;22402;-73
2023/12/28 12:02:21;;;;;;;11.50;6.40;;;;;;;8.35;72.39;100062.17;134190;1298;23198;-74
2023/12/28 12:05:24;;;;;;;9.10;5.10;;;;;;;8.37;72.36;100052.60;134313;1296;22260;-74
2023/12/28 12:08:25;;;;;;;8.70;4.90;;;;;;;8.39;72.32;100051.90;134249;1304;22887;-74
2023/12/28 12:11:37;;;;;;;;;;;;;;;8.40;72.28;100048.29;134252;1298;23157;-74
2023/12/28 12:14:38;;;;;;;10.30;5.40;;;;;;;8.40;72.50;100050.28;134258;1298;22501;-74
2023/12/28 12:17:39;;;;;;;17.60;8.20;;;;;;;8.39;72.57;100049.80;134204;1298;22512;-74
2023/12/28 12:20:40;;;;;;;13.10;6.40;;;;;;;8.38;72.50;100050.02;134280;1297;23309;-74
2023/12/28 12:23:41;;;;;;;22.80;7.80;;;;;;;8.39;72.43;100046.63;134221;1298;22453;-74
2023/12/28 12:26:44;;;;;;;;;;;;;;;8.38;72.57;100047.25;134307;1298;22460;-74
2023/12/28 12:29:47;;;;;;;17.40;7.70;;;;;;;8.36;72.37;100042.91;134261;1298;22257;-75
2023/12/28 12:32:50;;;;;;;17.30;7.80;;;;;;;8.33;72.43;100044.21;134279;1298;22440;-74
2023/12/28 12:35:50;;;;;;;11.30;5.10;;;;;;;8.31;72.69;100042.64;134208;1301;22434;-75
2023/12/28 12:38:51;;;;;;;;;;;;;;;8.29;72.73;100047.10;134250;1301;22456;-74
2023/12/28 12:41:52;;;;;;;6.80;4.60;;;;;;;8.27;72.70;100050.48;134284;1298;22392;-74
2023/12/28 12:44:53;;;;;;;8.30;4.50;;;;;;;8.25;72.77;100046.04;134239;1304;24615;-74
2023/12/28 12:47:54;;;;;;;;;;;;;;;8.23;72.72;100046.75;134271;1290;22441;-74
2023/12/28 12:50:55;;;;;;;6.90;4.10;;;;;;;8.21;73.01;100044.56;134235;1298;22408;-74
2023/12/28 12:54:00;;;;;;;6.80;3.90;;;;;;;8.19;72.91;100042.45;134248;1298;22968;-74
2023/12/28 12:57:03;;;;;;;15.60;7.70;;;;;;;8.16;72.83;100042.70;134259;1298;23204;-74
2023/12/28 13:00:09;;;;;;;18.90;9.30;;;;;;;8.16;72.98;100049.13;134252;1298;22193;-74
2023/12/28 13:03:10;;;;;;;19.70;9.20;;;;;;;8.15;72.92;100048.50;134223;1298;22995;-74
2023/12/28 13:06:10;;;;;;;;;;;;;;;8.13;73.08;100047.42;134258;1298;22472;-74
2023/12/28 13:09:11;;;;;;;12.10;6.10;;;;;;;8.11;72.96;100038.89;134205;1298;22592;-74
2023/12/28 13:12:15;;;;;;;9.50;5.10;;;;;;;8.06;72.99;100042.09;134289;1297;22373;-74
2023/12/28 13:15:16;;;;;;;15.00;5.80;;;;;;;7.99;73.12;100042.09;134233;1298;22472;-74
2023/12/28 13:18:17;;;;;;;;;;;;;;;7.94;73.31;100041.39;134268;1298;22485;-74
2023/12/28 13:21:18;;;;;;;10.30;6.70;;;;;;;7.87;73.32;100045.98;134237;1298;22407;-73
2023/12/28 13:24:19;;;;;;;13.70;8.00;;;;;;;7.81;73.42;100043.38;134276;1303;22457;-73
2023/12/28 13:27:20;;;;;;;15.70;7.90;;;;;;;7.77;73.61;100051.01;134261;1298;22261;-78
2023/12/28 13:30:21;;;;;;;;;;;;;;;7.74;73.67;100052.17;134258;1298;22468;-74
2023/12/28 13:33:24;;;;;;;16.40;9.00;;;;;;;7.70;73.88;100051.19;134258;1298;22356;-73
2023/12/28 13:36:28;;;;;;;17.50;9.70;;;;;;;7.68;74.02;100055.57;134252;1298;22367;-73
2023/12/28 13:39:38;;;;;;;16.00;8.70;;;;;;;7.68;74.00;100061.60;134233;1298;22410;-74
2023/12/28 13:42:39;;;;;;;17.70;9.40;;;;;;;7.66;73.92;100073.40;134273;1304;21783;-74
2023/12/28 13:45:40;;;;;;;16.40;8.80;;;;;;;7.63;73.97;100071.04;134250;1301;22211;-75
2023/12/28 13:48:45;;;;;;;19.50;10.10;;;;;;;7.60;73.85;100073.74;134160;1297;23114;-74
2023/12/28 13:51:49;;;;;;;18.60;9.60;;;;;;;7.58;73.92;100075.52;134196;1298;22356;-74
2023/12/28 13:54:50;;;;;;;22.10;10.30;;;;;;;7.58;73.96;100075.93;134193;1297;23070;-74
2023/12/28 13:57:51;;;;;;;;;;;;;;;7.55;73.88;100076.68;134255;1298;22459;-74
2023/12/28 14:00:51;;;;;;;22.20;10.90;;;;;;;7.53;73.89;100081.84;134210;1298;22389;-74
2023/12/28 14:03:52;;;;;;;19.50;10.50;;;;;;;7.50;74.00;100079.70;134217;1298;23285;-74
2023/12/28 14:06:53;;;;;;;19.00;10.80;;;;;;;7.47;74.01;100079.96;134211;1297;23143;-74
2023/12/28 14:09:53;;;;;;;15.80;9.30;;;;;;;7.42;74.06;100079.54;134224;1297;22370;-74
2023/12/28 14:12:54;;;;;;;20.30;9.50;;;;;;;7.38;74.12;100084.55;134243;1298;22247;-74
2023/12/28 14:15:56;;;;;;;;;;;;;;;7.34;73.92;100093.21;134230;1298;22489;-74
2023/12/28 14:18:57;;;;;;;15.20;7.90;;;;;;;7.28;74.01;100093.95;134234;1297;23111;-75
2023/12/28 14:22:01;;;;;;;14.50;7.70;;;;;;;7.21;74.00;100098.13;134231;1298;22407;-75
2023/12/28 14:25:02;;;;;;;12.90;8.00;;;;;;;7.14;74.00;100099.49;134249;1298;22439;-75
2023/12/28 14:28:03;;;;;;;10.00;6.50;;;;;;;7.06;74.15;100103.21;134251;1298;22480;-75
2023/12/28 14:31:05;;;;;;;13.90;6.80;;;;;;;7.01;74.10;100104.63;134234;1298;22366;-75
2023/12/28 14:34:06;;;;;;;22.00;9.80;;;;;;;6.94;74.17;100100.95;134256;1298;23038;-75
2023/12/28 14:37:07;;;;;;;28.50;12.60;;;;;;;6.88;74.21;100101.21;134244;1298;23237;-75
2023/12/28 14:40:11;;;;;;;28.50;12.10;;;;;;;6.81;74.29;100103.42;134234;1297;22971;-74